Time;durP1;ratioP1;P1;durP2;ratioP2;P2;SDS_P1;SDS_P2;PMS_P1;PMS_P2;Temp;Humidity;BMP_temperature;BMP_pressure;BME280_temperature;BME280_humidity;BME280_pressure;Samples;Min_cycle;Max_cycle;Signal;HPM_P1;HPM_P2
2022/06/30 00:01:58;;;;;;;3.35;2.03;;;;;;;25.01;41.23;101305.06;5038387;28;20392;-60
2022/06/30 00:04:29;;;;;;;3.00;2.00;;;;;;;25.08;40.51;101327.91;5038409;28;20408;-60
2022/06/30 00:07:01;;;;;;;3.17;2.42;;;;;;;25.08;40.95;101327.91;5068014;28;20502;-60
2022/06/30 00:09:30;;;;;;;3.88;2.28;;;;;;;25.07;41.38;101320.88;5048289;28;20490;-61
2022/06/30 00:11:59;;;;;;;2.65;1.90;;;;;;;25.08;41.01;101320.00;5069464;28;20487;-61
2022/06/30 00:14:25;;;;;;;3.28;2.17;;;;;;;25.07;40.95;101320.88;5051633;28;20897;-61
2022/06/30 00:16:53;;;;;;;3.10;1.90;;;;;;;25.03;41.31;101312.97;5051021;28;20389;-61
2022/06/30 00:19:21;;;;;;;2.92;2.10;;;;;;;24.92;41.74;101289.25;5065535;28;20387;-59
2022/06/30 00:21:47;;;;;;;3.20;2.03;;;;;;;25.09;41.93;101316.47;5060107;28;20838;-60
2022/06/30 00:24:12;;;;;;;2.90;2.13;;;;;;;25.04;41.32;101305.06;5057667;28;20475;-61
2022/06/30 00:26:39;;;;;;;3.50;2.10;;;;;;;25.07;41.05;101305.06;5056416;28;20436;-60
2022/06/30 00:29:04;;;;;;;2.60;1.98;;;;;;;25.02;41.36;101309.47;5042228;28;20480;-61
2022/06/30 00:31:32;;;;;;;2.90;2.00;;;;;;;25.07;41.84;101315.59;5092849;28;20445;-60
2022/06/30 00:33:58;;;;;;;2.53;1.80;;;;;;;24.99;41.99;101301.56;5075292;28;20396;-60
2022/06/30 00:36:27;;;;;;;3.15;2.30;;;;;;;25.08;41.17;101305.94;5094749;28;20388;-61
2022/06/30 00:38:53;;;;;;;3.22;2.10;;;;;;;25.06;41.01;101303.31;5059963;28;20379;-62
2022/06/30 00:41:18;;;;;;;3.67;2.13;;;;;;;25.07;42.06;101305.06;5055340;28;20397;-60
2022/06/30 00:43:48;;;;;;;4.97;2.50;;;;;;;25.08;41.81;101296.28;5091960;28;20528;-61
2022/06/30 00:46:14;;;;;;;2.60;1.90;;;;;;;25.06;41.21;101287.50;5050071;28;20806;-61
2022/06/30 00:48:40;;;;;;;2.85;1.92;;;;;;;25.05;41.53;101280.47;5055932;28;20392;-60
2022/06/30 00:51:06;;;;;;;3.25;1.98;;;;;;;25.06;41.70;101282.22;5059389;28;20479;-60
2022/06/30 00:53:37;;;;;;;3.40;2.03;;;;;;;25.05;41.53;101285.75;5049403;28;20467;-61
2022/06/30 00:56:04;;;;;;;2.80;1.92;;;;;;;25.04;41.65;101286.63;5060179;28;20390;-60
2022/06/30 00:58:29;;;;;;;2.77;2.03;;;;;;;25.07;42.15;101286.63;5067298;28;20409;-61
2022/06/30 01:00:56;;;;;;;2.83;1.80;;;;;;;25.07;41.92;101289.25;5057443;28;20892;-61
2022/06/30 01:03:22;;;;;;;2.47;2.00;;;;;;;24.99;41.93;101272.56;5072247;28;20403;-62
2022/06/30 01:05:47;;;;;;;2.83;2.00;;;;;;;25.07;41.22;101291.88;5056492;28;20380;-60
2022/06/30 01:08:15;;;;;;;2.87;1.97;;;;;;;25.04;41.48;101286.63;5069960;28;20751;-60
2022/06/30 01:13:24;;;;;;;2.47;1.80;;;;;;;25.04;41.51;101283.09;5073415;28;20821;-60
2022/06/30 01:15:49;;;;;;;2.50;1.90;;;;;;;25.04;42.20;101283.97;5073910;28;20491;-60
2022/06/30 01:18:17;;;;;;;3.03;2.00;;;;;;;25.04;42.09;101265.53;5061055;28;20764;-61
2022/06/30 01:20:43;;;;;;;2.15;1.90;;;;;;;25.06;42.07;101261.16;5086079;28;20386;-61
2022/06/30 01:23:08;;;;;;;3.10;2.05;;;;;;;25.06;41.96;101263.78;5075645;28;20407;-61
2022/06/30 01:25:34;;;;;;;2.63;1.80;;;;;;;25.07;42.45;101265.53;5057124;28;20410;-61
2022/06/30 01:28:00;;;;;;;2.97;2.10;;;;;;;25.07;41.86;101256.75;5045001;28;20468;-60
2022/06/30 01:30:26;;;;;;;3.28;2.10;;;;;;;24.97;41.93;101241.81;5058372;28;20401;-61
2022/06/30 01:32:51;;;;;;;2.53;1.90;;;;;;;25.06;42.08;101258.50;5046881;28;20623;-61
2022/06/30 01:35:19;;;;;;;2.47;1.90;;;;;;;25.05;42.21;101254.13;5044011;28;20378;-59
2022/06/30 01:37:46;;;;;;;3.90;1.92;;;;;;;25.01;41.56;101249.72;5070056;28;20428;-61
2022/06/30 01:40:12;;;;;;;2.45;1.98;;;;;;;25.06;41.58;101255.88;5099415;28;20402;-62
2022/06/30 01:42:38;;;;;;;2.45;2.05;;;;;;;25.02;41.68;101248.84;5071190;28;20419;-60
2022/06/30 01:45:04;;;;;;;2.38;1.98;;;;;;;25.03;42.72;101245.34;5055716;28;20392;-62
2022/06/30 01:47:32;;;;;;;2.78;2.08;;;;;;;25.04;41.43;101247.09;5053834;28;20400;-61
2022/06/30 01:49:58;;;;;;;2.27;1.90;;;;;;;25.05;42.08;101242.69;5058147;28;20392;-60
2022/06/30 01:52:23;;;;;;;3.27;1.93;;;;;;;25.04;41.73;101252.38;5057588;28;20927;-60
2022/06/30 01:54:48;;;;;;;3.10;1.90;;;;;;;25.05;42.05;101254.13;5087636;28;20984;-61
2022/06/30 01:57:14;;;;;;;2.73;2.00;;;;;;;25.05;42.31;101254.13;5067695;28;20389;-60
2022/06/30 01:59:39;;;;;;;2.50;1.80;;;;;;;25.05;41.94;101254.13;5065793;28;20397;-60
2022/06/30 02:02:04;;;;;;;2.97;1.80;;;;;;;25.04;42.26;101256.75;5082115;28;20541;-60
2022/06/30 02:04:48;;;;;;;2.67;1.83;;;;;;;25.04;42.39;101257.63;5069146;28;20432;-60
2022/06/30 02:07:14;;;;;;;2.90;2.00;;;;;;;25.04;42.01;101257.63;5073748;28;20907;-60
2022/06/30 02:09:40;;;;;;;3.08;2.20;;;;;;;25.04;41.73;101256.75;5054961;28;20396;-60
2022/06/30 02:14:50;;;;;;;2.10;1.80;;;;;;;25.03;41.57;101249.72;5064904;28;20397;-59
2022/06/30 02:17:18;;;;;;;3.23;2.00;;;;;;;25.04;41.62;101246.19;5073658;28;20392;-61
2022/06/30 02:19:43;;;;;;;3.15;1.95;;;;;;;25.05;41.59;101248.84;5073862;28;20393;-60
2022/06/30 02:22:09;;;;;;;3.55;2.10;;;;;;;25.04;42.35;101260.28;5072108;28;20403;-60
2022/06/30 02:24:36;;;;;;;2.67;1.90;;;;;;;25.03;42.48;101266.41;5073816;28;20411;-60
2022/06/30 02:27:02;;;;;;;2.88;2.00;;;;;;;25.05;41.63;101269.94;5050254;28;20477;-60
2022/06/30 02:29:27;;;;;;;3.05;2.00;;;;;;;25.04;42.22;101262.00;5055379;28;20424;-60
2022/06/30 02:31:53;;;;;;;2.72;1.80;;;;;;;25.05;42.55;101269.94;5072920;28;20428;-60
2022/06/30 02:34:18;;;;;;;2.85;1.95;;;;;;;25.04;41.91;101262.00;5084395;28;20384;-62
2022/06/30 02:36:44;;;;;;;2.67;1.97;;;;;;;25.03;42.10;101263.78;5052541;28;20488;-61
2022/06/30 02:39:09;;;;;;;2.47;1.80;;;;;;;25.05;42.05;101264.66;5084546;28;20426;-61
2022/06/30 02:41:35;;;;;;;2.87;1.87;;;;;;;25.05;42.41;101269.03;5069161;28;20918;-61
2022/06/30 02:44:01;;;;;;;2.20;1.80;;;;;;;25.04;42.17;101257.63;5055885;28;20389;-61
2022/06/30 02:46:30;;;;;;;2.80;2.00;;;;;;;25.03;42.23;101261.16;5057174;28;20420;-60
2022/06/30 02:48:57;;;;;;;2.90;2.20;;;;;;;24.95;41.90;101247.09;5063439;28;20452;-60
2022/06/30 02:51:23;;;;;;;3.20;2.20;;;;;;;24.99;42.11;101248.84;5066658;28;20419;-60
2022/06/30 02:53:48;;;;;;;1.90;1.60;;;;;;;25.01;41.75;101252.38;5064160;28;20403;-60
2022/06/30 02:56:16;;;;;;;3.25;2.10;;;;;;;25.03;41.93;101255.88;5056828;28;20391;-61
2022/06/30 02:58:42;;;;;;;3.08;1.90;;;;;;;24.99;42.12;101243.59;5055459;28;20404;-61
2022/06/30 03:01:08;;;;;;;2.65;1.85;;;;;;;25.01;42.25;101247.09;5069955;28;20405;-61
2022/06/30 03:03:36;;;;;;;2.40;1.80;;;;;;;25.02;42.11;101238.31;5071548;28;20393;-64
2022/06/30 03:06:01;;;;;;;3.00;1.90;;;;;;;25.02;42.33;101240.94;5059288;28;20420;-60
2022/06/30 03:11:16;;;;;;;2.80;1.90;;;;;;;25.03;41.80;101245.34;4169219;22;20439;-59
2022/06/30 03:13:45;;;;;;;3.03;1.80;;;;;;;24.97;41.92;101234.81;5039001;28;20827;-59
2022/06/30 03:16:11;;;;;;;3.08;2.10;;;;;;;25.05;42.20;101250.59;5031720;28;20406;-61
2022/06/30 03:18:36;;;;;;;3.92;2.13;;;;;;;25.02;41.75;101238.31;5050863;28;20393;-60
2022/06/30 03:21:02;;;;;;;2.70;1.83;;;;;;;25.04;42.53;101241.81;5046723;28;20394;-58
2022/06/30 03:23:27;;;;;;;2.73;2.13;;;;;;;25.04;42.26;101236.56;5045587;28;20395;-59
2022/06/30 03:25:52;;;;;;;2.50;1.97;;;;;;;25.05;41.92;101233.03;5047529;28;20402;-61
2022/06/30 03:28:18;;;;;;;2.57;2.10;;;;;;;25.05;42.37;101238.31;5052453;28;20406;-59
2022/06/30 03:30:47;;;;;;;3.60;2.10;;;;;;;25.03;42.76;101223.38;5046807;28;20411;-59
2022/06/30 03:33:13;;;;;;;3.38;2.10;;;;;;;25.05;42.43;101237.41;5024855;28;20404;-61
2022/06/30 03:35:38;;;;;;;2.70;2.20;;;;;;;25.02;42.84;101226.88;5049424;28;20858;-58
2022/06/30 03:38:04;;;;;;;2.15;1.90;;;;;;;25.03;42.62;101212.81;5025336;28;20393;-59
2022/06/30 03:40:30;;;;;;;3.85;2.10;;;;;;;25.04;42.40;101218.09;5047894;28;20396;-59
2022/06/30 03:42:55;;;;;;;2.90;1.95;;;;;;;24.98;42.60;101210.22;5052631;28;20479;-60
2022/06/30 03:45:20;;;;;;;2.53;1.90;;;;;;;25.01;42.05;101220.75;5067890;28;20532;-59
2022/06/30 03:47:45;;;;;;;3.20;2.10;;;;;;;25.02;42.11;101219.88;5049226;28;20393;-59
2022/06/30 03:50:11;;;;;;;2.90;2.03;;;;;;;24.89;42.53;101199.66;5063524;28;20451;-60
2022/06/30 03:52:38;;;;;;;3.13;2.07;;;;;;;25.05;42.27;101227.78;5049962;28;20492;-59
2022/06/30 03:55:04;;;;;;;3.78;2.05;;;;;;;25.06;42.17;101221.63;5049911;28;20391;-58
2022/06/30 03:57:30;;;;;;;3.65;2.00;;;;;;;25.06;42.59;101218.09;5048117;28;20409;-59
2022/06/30 03:59:55;;;;;;;2.23;1.87;;;;;;;25.04;42.21;101215.47;5045239;28;20727;-61
2022/06/30 04:02:20;;;;;;;3.23;2.20;;;;;;;24.94;42.02;101197.94;5066295;28;20474;-58
2022/06/30 04:04:46;;;;;;;3.30;2.10;;;;;;;25.05;42.38;101216.34;5044973;28;20625;-59
2022/06/30 04:07:11;;;;;;;3.23;2.13;;;;;;;24.93;42.97;101196.19;5050489;28;20393;-59
2022/06/30 04:09:36;;;;;;;3.80;2.80;;;;;;;25.04;42.80;101204.94;5048767;28;20433;-59
2022/06/30 04:12:02;;;;;;;2.60;2.20;;;;;;;25.06;42.99;101208.44;5047253;28;20392;-59
2022/06/30 04:14:27;;;;;;;3.70;2.20;;;;;;;25.05;42.41;101197.88;5048286;28;20393;-59
2022/06/30 04:16:53;;;;;;;2.53;2.10;;;;;;;25.10;42.08;101204.03;5047238;28;20508;-61
2022/06/30 04:19:18;;;;;;;3.83;2.27;;;;;;;25.11;42.92;101199.66;5065447;28;20406;-59
2022/06/30 04:21:43;;;;;;;3.97;2.20;;;;;;;24.98;42.29;101188.25;5027135;28;20894;-60
2022/06/30 04:24:09;;;;;;;2.73;2.17;;;;;;;25.12;42.12;101209.31;5046845;28;20867;-59
2022/06/30 04:26:34;;;;;;;2.83;2.10;;;;;;;25.11;43.04;101194.38;5040162;28;20397;-59
2022/06/30 04:28:59;;;;;;;2.20;1.90;;;;;;;25.09;42.75;101192.63;5042924;28;20402;-59
2022/06/30 04:34:09;;;;;;;3.85;2.28;;;;;;;25.09;42.98;101197.91;5050363;28;20394;-59
2022/06/30 04:36:36;;;;;;;2.53;2.13;;;;;;;25.09;43.23;101192.63;5049004;28;20397;-60
2022/06/30 04:39:04;;;;;;;2.90;2.17;;;;;;;25.07;42.39;101197.03;5048512;28;21017;-59
2022/06/30 04:41:29;;;;;;;2.53;2.07;;;;;;;25.09;42.69;101197.91;5030264;28;20394;-59
2022/06/30 04:43:56;;;;;;;3.03;2.10;;;;;;;25.11;42.90;101199.66;5061111;28;20754;-60
2022/06/30 04:46:22;;;;;;;2.17;1.88;;;;;;;25.12;43.13;101209.31;5048229;28;20888;-59
2022/06/30 04:48:50;;;;;;;2.85;2.22;;;;;;;24.89;42.26;101168.03;5030132;28;20388;-60
2022/06/30 04:51:16;;;;;;;3.78;2.10;;;;;;;25.07;42.68;101202.28;5017217;28;20384;-59
2022/06/30 04:53:42;;;;;;;3.00;2.17;;;;;;;25.08;42.56;101201.41;5028326;28;20397;-59
2022/06/30 04:56:08;;;;;;;3.35;2.08;;;;;;;25.12;42.37;101206.66;5040864;28;20395;-59
2022/06/30 04:58:34;;;;;;;3.13;2.10;;;;;;;25.12;42.77;101211.94;5049414;28;20388;-59
2022/06/30 05:01:01;;;;;;;2.50;1.93;;;;;;;25.08;43.23;101197.88;5047788;28;20399;-59
2022/06/30 05:03:26;;;;;;;3.10;2.33;;;;;;;25.12;43.07;101204.03;5035619;28;20390;-62
2022/06/30 05:05:54;;;;;;;3.33;2.17;;;;;;;25.11;42.97;101199.66;5050728;28;20397;-59
2022/06/30 05:08:20;;;;;;;3.10;2.10;;;;;;;25.13;42.97;101197.88;5072803;28;20483;-59
2022/06/30 05:10:45;;;;;;;3.13;2.40;;;;;;;25.15;42.99;101190.84;5029078;28;20488;-59
2022/06/30 05:13:10;;;;;;;2.70;2.20;;;;;;;25.12;43.14;101196.13;5043959;28;20396;-61
2022/06/30 05:15:36;;;;;;;4.80;2.77;;;;;;;25.14;43.17;101199.63;5034378;28;20386;-60
2022/06/30 05:18:01;;;;;;;2.80;2.10;;;;;;;25.01;42.87;101178.59;5044828;28;20395;-59
2022/06/30 05:20:29;;;;;;;3.23;2.10;;;;;;;25.15;43.93;101202.25;5044428;28;20406;-59
2022/06/30 05:22:55;;;;;;;4.18;2.40;;;;;;;25.14;43.56;101204.91;5049581;28;20429;-61
2022/06/30 05:28:04;;;;;;;4.10;2.30;;;;;;;25.09;43.47;101176.81;5045569;28;20904;-63
2022/06/30 05:30:30;;;;;;;4.07;2.30;;;;;;;25.18;42.82;101193.47;5050388;28;20401;-64
2022/06/30 05:32:55;;;;;;;5.80;2.20;;;;;;;25.21;43.86;101196.09;5028374;28;20931;-64
2022/06/30 05:35:20;;;;;;;4.22;2.35;;;;;;;25.20;43.98;101197.84;5046415;28;20801;-64
2022/06/30 05:37:46;;;;;;;4.13;2.40;;;;;;;25.22;44.15;101205.75;5067973;28;20432;-63
2022/06/30 05:40:11;;;;;;;5.93;2.80;;;;;;;25.24;44.64;101193.47;5049669;28;20446;-65
2022/06/30 05:42:42;;;;;;;5.85;2.38;;;;;;;25.24;44.84;101196.09;5029753;28;20395;-64
2022/06/30 05:45:08;;;;;;;6.05;2.50;;;;;;;25.21;43.96;101196.09;5070090;28;20406;-61
2022/06/30 05:47:34;;;;;;;7.88;2.92;;;;;;;25.20;46.10;101191.72;5064127;28;20406;-60
2022/06/30 05:49:59;;;;;;;6.28;2.90;;;;;;;25.25;45.16;101200.47;5051122;28;20398;-58
2022/06/30 05:52:25;;;;;;;9.97;3.30;;;;;;;25.21;45.13;101185.56;5037775;28;20935;-58
2022/06/30 05:54:50;;;;;;;12.03;3.30;;;;;;;25.28;44.99;101197.84;5050152;28;20409;-58
2022/06/30 05:57:15;;;;;;;5.72;3.03;;;;;;;25.29;46.07;101204.88;5067716;28;20399;-51
2022/06/30 05:59:41;;;;;;;8.93;3.30;;;;;;;25.29;45.66;101203.97;5034465;28;20398;-61
2022/06/30 06:02:07;;;;;;;7.33;2.63;;;;;;;25.26;45.72;101199.59;5038100;28;20952;-63
2022/06/30 06:04:33;;;;;;;6.95;3.08;;;;;;;25.16;45.53;101187.34;5051493;28;20400;-67
2022/06/30 06:07:00;;;;;;;5.20;2.78;;;;;;;25.13;46.02;101187.34;5053823;28;20472;-65
2022/06/30 06:09:30;;;;;;;5.82;2.80;;;;;;;25.21;45.88;101196.09;5045234;28;20896;-73
2022/06/30 06:11:55;;;;;;;5.40;2.90;;;;;;;25.23;45.91;101204.88;5026759;28;20392;-67
2022/06/30 06:14:20;;;;;;;4.80;2.70;;;;;;;25.24;45.37;101204.00;5052385;28;20446;-61
2022/06/30 06:16:46;;;;;;;8.60;2.70;;;;;;;25.25;45.73;101197.84;5021385;28;20545;-60
2022/06/30 06:19:11;;;;;;;6.07;2.80;;;;;;;25.24;45.60;101190.81;5034457;28;20881;-61
2022/06/30 06:21:40;;;;;;;5.30;2.60;;;;;;;25.23;45.43;101194.34;5050098;28;20388;-61
2022/06/30 06:24:08;;;;;;;4.93;2.65;;;;;;;25.24;45.30;101190.81;5037631;28;20394;-60
2022/06/30 06:26:36;;;;;;;5.95;2.75;;;;;;;25.24;45.81;101188.19;5049014;28;20893;-61
2022/06/30 06:29:11;;;;;;;4.65;2.65;;;;;;;25.24;44.35;101190.81;5047773;28;20423;-60
